sensor_id;sensor_type;location;lat;lon;timestamp;pressure;altitude;pressure_sealevel;temperature;humidity
65157;BME280;52745;49.794;18.258;2023-05-20T00:01:26;-16225.56;;;10.80;100.00
65157;BME280;52745;49.794;18.258;2023-05-20T00:03:53;-16226.66;;;10.84;100.00
65157;BME280;52745;49.794;18.258;2023-05-20T00:06:20;-16228.56;;;10.91;100.00
65157;BME280;52745;49.794;18.258;2023-05-20T00:08:46;-16229.38;;;10.94;100.00
65157;BME280;52745;49.794;18.258;2023-05-20T00:11:13;-16229.78;;;10.96;100.00
65157;BME280;52745;49.794;18.258;2023-05-20T00:13:40;-16229.09;;;10.93;100.00
65157;BME280;52745;49.794;18.258;2023-05-20T00:16:07;-16229.38;;;10.94;100.00
65157;BME280;52745;49.794;18.258;2023-05-20T00:18:33;-16227.34;;;10.87;100.00
65157;BME280;52745;49.794;18.258;2023-05-20T00:21:00;-16230.47;;;10.98;100.00
65157;BME280;52745;49.794;18.258;2023-05-20T00:23:26;-16229.66;;;10.95;100.00
65157;BME280;52745;49.794;18.258;2023-05-20T00:25:53;-16229.66;;;10.95;100.00
65157;BME280;52745;49.794;18.258;2023-05-20T00:28:20;-16228.16;;;10.90;100.00
65157;BME280;52745;49.794;18.258;2023-05-20T00:30:48;-16225.44;;;10.80;100.00
65157;BME280;52745;49.794;18.258;2023-05-20T00:33:15;-16227.19;;;10.86;100.00
65157;BME280;52745;49.794;18.258;2023-05-20T00:35:42;-16226.38;;;10.83;100.00
65157;BME280;52745;49.794;18.258;2023-05-20T00:38:08;-16227.34;;;10.87;100.00
65157;BME280;52745;49.794;18.258;2023-05-20T00:40:35;-16230.47;;;10.98;100.00
65157;BME280;52745;49.794;18.258;2023-05-20T00:43:02;-16230.34;;;10.98;100.00
65157;BME280;52745;49.794;18.258;2023-05-20T00:45:30;-16229.53;;;10.95;100.00
65157;BME280;52745;49.794;18.258;2023-05-20T00:47:57;-16230.34;;;10.98;100.00
65157;BME280;52745;49.794;18.258;2023-05-20T00:50:26;-16228.16;;;10.90;100.00
65157;BME280;52745;49.794;18.258;2023-05-20T00:52:54;-16225.56;;;10.80;100.00
65157;BME280;52745;49.794;18.258;2023-05-20T00:55:21;-16226.38;;;10.83;100.00
65157;BME280;52745;49.794;18.258;2023-05-20T00:57:48;-16229.38;;;10.94;100.00
65157;BME280;52745;49.794;18.258;2023-05-20T01:00:15;-16228.84;;;10.92;100.00
65157;BME280;52745;49.794;18.258;2023-05-20T01:02:42;-16229.66;;;10.95;100.00
65157;BME280;52745;49.794;18.258;2023-05-20T01:05:10;-16230.75;;;11.00;100.00
65157;BME280;52745;49.794;18.258;2023-05-20T01:07:37;-16229.09;;;10.93;100.00
65157;BME280;52745;49.794;18.258;2023-05-20T01:10:04;-16229.09;;;10.93;100.00
65157;BME280;52745;49.794;18.258;2023-05-20T01:15:04;-16231.97;;;11.04;100.00
65157;BME280;52745;49.794;18.258;2023-05-20T01:17:37;-16232.94;;;11.08;100.00
65157;BME280;52745;49.794;18.258;2023-05-20T01:20:06;-16232.38;;;11.06;100.00
65157;BME280;52745;49.794;18.258;2023-05-20T01:22:55;-16231.69;;;11.03;100.00
65157;BME280;52745;49.794;18.258;2023-05-20T01:25:23;-16232.25;;;11.05;100.00
65157;BME280;52745;49.794;18.258;2023-05-20T01:27:51;-16232.09;;;11.05;100.00
65157;BME280;52745;49.794;18.258;2023-05-20T01:30:20;-16230.47;;;10.98;100.00
65157;BME280;52745;49.794;18.258;2023-05-20T01:32:49;-16231.28;;;11.02;100.00
65157;BME280;52745;49.794;18.258;2023-05-20T01:35:19;-16229.78;;;10.96;100.00
65157;BME280;52745;49.794;18.258;2023-05-20T01:37:47;-16232.09;;;11.05;100.00
65157;BME280;52745;49.794;18.258;2023-05-20T01:40:15;-16230.63;;;10.99;100.00
65157;BME280;52745;49.794;18.258;2023-05-20T01:42:42;-16230.63;;;10.99;100.00
65157;BME280;52745;49.794;18.258;2023-05-20T01:45:11;-16230.34;;;10.98;100.00
65157;BME280;52745;49.794;18.258;2023-05-20T01:47:37;-16226.78;;;10.85;100.00
65157;BME280;52745;49.794;18.258;2023-05-20T01:50:05;-16228.28;;;10.90;100.00
65157;BME280;52745;49.794;18.258;2023-05-20T01:52:32;-16228.84;;;10.92;100.00
65157;BME280;52745;49.794;18.258;2023-05-20T01:54:59;-16228.72;;;10.92;100.00
65157;BME280;52745;49.794;18.258;2023-05-20T01:57:25;-16230.47;;;10.98;100.00
65157;BME280;52745;49.794;18.258;2023-05-20T01:59:53;-16228.56;;;10.91;100.00
65157;BME280;52745;49.794;18.258;2023-05-20T02:02:19;-16229.38;;;10.94;100.00
65157;BME280;52745;49.794;18.258;2023-05-20T02:04:50;-16225.28;;;10.79;100.00
65157;BME280;52745;49.794;18.258;2023-05-20T02:07:17;-16226.38;;;10.83;100.00
65157;BME280;52745;49.794;18.258;2023-05-20T02:09:45;-16225.16;;;10.79;100.00
65157;BME280;52745;49.794;18.258;2023-05-20T02:12:12;-16222.84;;;10.70;100.00
65157;BME280;52745;49.794;18.258;2023-05-20T02:14:43;-16223.38;;;10.72;100.00
65157;BME280;52745;49.794;18.258;2023-05-20T02:17:11;-16223.78;;;10.73;100.00
65157;BME280;52745;49.794;18.258;2023-05-20T02:19:39;-16224.22;;;10.75;100.00
65157;BME280;52745;49.794;18.258;2023-05-20T02:22:06;-16224.22;;;10.75;100.00
65157;BME280;52745;49.794;18.258;2023-05-20T02:24:33;-16222.28;;;10.68;100.00
65157;BME280;52745;49.794;18.258;2023-05-20T02:27:00;-16221.22;;;10.64;100.00
65157;BME280;52745;49.794;18.258;2023-05-20T02:29:30;-16221.06;;;10.63;100.00
65157;BME280;52745;49.794;18.258;2023-05-20T02:31:57;-16219.56;;;10.57;100.00
65157;BME280;52745;49.794;18.258;2023-05-20T02:34:23;-16219.56;;;10.57;100.00
65157;BME280;52745;49.794;18.258;2023-05-20T02:36:51;-16220.94;;;10.63;100.00
65157;BME280;52745;49.794;18.258;2023-05-20T02:39:18;-16220.66;;;10.62;100.00
65157;BME280;52745;49.794;18.258;2023-05-20T02:41:45;-16218.63;;;10.54;100.00
65157;BME280;52745;49.794;18.258;2023-05-20T02:44:12;-16218.22;;;10.52;100.00
65157;BME280;52745;49.794;18.258;2023-05-20T02:46:39;-16218.06;;;10.52;100.00
65157;BME280;52745;49.794;18.258;2023-05-20T02:49:06;-16216.84;;;10.47;100.00
65157;BME280;52745;49.794;18.258;2023-05-20T02:51:32;-16216.84;;;10.47;100.00
65157;BME280;52745;49.794;18.258;2023-05-20T02:53:59;-16216.97;;;10.48;100.00
65157;BME280;52745;49.794;18.258;2023-05-20T02:56:26;-16215.75;;;10.43;100.00
65157;BME280;52745;49.794;18.258;2023-05-20T02:58:54;-16215.22;;;10.41;100.00
65157;BME280;52745;49.794;18.258;2023-05-20T03:01:21;-16217.94;;;10.51;100.00
65157;BME280;52745;49.794;18.258;2023-05-20T03:03:48;-16216.31;;;10.45;100.00
65157;BME280;52745;49.794;18.258;2023-05-20T03:06:15;-16214.25;;;10.38;100.00
65157;BME280;52745;49.794;18.258;2023-05-20T03:08:42;-16214.66;;;10.39;100.00
65157;BME280;52745;49.794;18.258;2023-05-20T03:11:09;-16213.56;;;10.35;100.00
65157;BME280;52745;49.794;18.258;2023-05-20T03:13:35;-16215.34;;;10.42;100.00
65157;BME280;52745;49.794;18.258;2023-05-20T03:16:02;-16215.47;;;10.42;100.00
65157;BME280;52745;49.794;18.258;2023-05-20T03:18:31;-16215.75;;;10.43;100.00
65157;BME280;52745;49.794;18.258;2023-05-20T03:20:59;-16216.84;;;10.47;100.00
65157;BME280;52745;49.794;18.258;2023-05-20T03:23:26;-16214.94;;;10.40;100.00
65157;BME280;52745;49.794;18.258;2023-05-20T03:25:52;-16214.94;;;10.40;100.00
65157;BME280;52745;49.794;18.258;2023-05-20T03:28:19;-16215.47;;;10.42;100.00
65157;BME280;52745;49.794;18.258;2023-05-20T03:30:46;-16216.72;;;10.47;100.00
65157;BME280;52745;49.794;18.258;2023-05-20T03:33:14;-16219.03;;;10.55;100.00
65157;BME280;52745;49.794;18.258;2023-05-20T03:35:41;-16217.94;;;10.51;100.00
65157;BME280;52745;49.794;18.258;2023-05-20T03:38:07;-16217.13;;;10.48;100.00
65157;BME280;52745;49.794;18.258;2023-05-20T03:40:36;-16217.13;;;10.48;100.00
65157;BME280;52745;49.794;18.258;2023-05-20T03:43:03;-16215.75;;;10.43;100.00
65157;BME280;52745;49.794;18.258;2023-05-20T03:45:31;-16215.88;;;10.44;100.00
65157;BME280;52745;49.794;18.258;2023-05-20T03:48:04;-16215.63;;;10.43;100.00
65157;BME280;52745;49.794;18.258;2023-05-20T03:50:32;-16217.94;;;10.51;100.00
65157;BME280;52745;49.794;18.258;2023-05-20T03:53:00;-16216.56;;;10.46;100.00
65157;BME280;52745;49.794;18.258;2023-05-20T03:55:29;-16216.03;;;10.44;100.00
65157;BME280;52745;49.794;18.258;2023-05-20T03:57:58;-16213.97;;;10.37;100.00
65157;BME280;52745;49.794;18.258;2023-05-20T04:00:25;-16226.38;;;10.83;100.00
65157;BME280;52745;49.794;18.258;2023-05-20T04:02:52;-16225.72;;;10.81;100.00
65157;BME280;52745;49.794;18.258;2023-05-20T04:05:18;-16228.03;;;10.89;100.00
65157;BME280;52745;49.794;18.258;2023-05-20T04:07:46;-16226.94;;;10.85;100.00
65157;BME280;52745;49.794;18.258;2023-05-20T04:10:14;-16226.13;;;10.82;100.00
65157;BME280;52745;49.794;18.258;2023-05-20T04:12:40;-16225.72;;;10.81;100.00
65157;BME280;52745;49.794;18.258;2023-05-20T04:15:08;-16224.47;;;10.76;100.00
65157;BME280;52745;49.794;18.258;2023-05-20T04:17:56;-16218.34;;;10.53;100.00
65157;BME280;52745;49.794;18.258;2023-05-20T04:20:22;-16221.22;;;10.64;100.00
65157;BME280;52745;49.794;18.258;2023-05-20T04:22:51;-16220.53;;;10.61;100.00
65157;BME280;52745;49.794;18.258;2023-05-20T04:25:19;-16218.22;;;10.52;100.00
65157;BME280;52745;49.794;18.258;2023-05-20T04:27:46;-16217.66;;;10.50;100.00
65157;BME280;52745;49.794;18.258;2023-05-20T04:30:14;-16219.56;;;10.57;100.00
65157;BME280;52745;49.794;18.258;2023-05-20T04:32:43;-16217.13;;;10.48;100.00
65157;BME280;52745;49.794;18.258;2023-05-20T04:35:10;-16217.94;;;10.51;100.00
65157;BME280;52745;49.794;18.258;2023-05-20T04:37:42;-16220.66;;;10.62;100.00
65157;BME280;52745;49.794;18.258;2023-05-20T04:40:18;-16221.63;;;10.65;100.00
65157;BME280;52745;49.794;18.258;2023-05-20T04:42:47;-16222.03;;;10.67;100.00
65157;BME280;52745;49.794;18.258;2023-05-20T04:45:15;-16223.53;;;10.72;100.00
65157;BME280;52745;49.794;18.258;2023-05-20T04:47:42;-16219.84;;;10.59;100.00
65157;BME280;52745;49.794;18.258;2023-05-20T04:50:10;-16220.94;;;10.63;100.00
65157;BME280;52745;49.794;18.258;2023-05-20T04:52:37;-16221.06;;;10.63;100.00
65157;BME280;52745;49.794;18.258;2023-05-20T04:55:06;-16222.03;;;10.67;100.00
65157;BME280;52745;49.794;18.258;2023-05-20T04:57:37;-16220.38;;;10.61;100.00
65157;BME280;52745;49.794;18.258;2023-05-20T05:00:10;-16218.88;;;10.55;100.00
65157;BME280;52745;49.794;18.258;2023-05-20T05:02:39;-16219.44;;;10.57;100.00
65157;BME280;52745;49.794;18.258;2023-05-20T05:05:06;-16219.31;;;10.56;100.00
65157;BME280;52745;49.794;18.258;2023-05-20T05:07:34;-16218.63;;;10.54;100.00
65157;BME280;52745;49.794;18.258;2023-05-20T05:10:01;-16220.66;;;10.62;100.00
65157;BME280;52745;49.794;18.258;2023-05-20T05:12:32;-16222.72;;;10.69;100.00
65157;BME280;52745;49.794;18.258;2023-05-20T05:14:59;-16223.13;;;10.71;100.00
65157;BME280;52745;49.794;18.258;2023-05-20T05:17:27;-16224.75;;;10.77;100.00
65157;BME280;52745;49.794;18.258;2023-05-20T05:19:53;-16221.88;;;10.66;100.00
65157;BME280;52745;49.794;18.258;2023-05-20T05:22:21;-16221.75;;;10.66;100.00
65157;BME280;52745;49.794;18.258;2023-05-20T05:24:48;-16223.66;;;10.73;100.00
65157;BME280;52745;49.794;18.258;2023-05-20T05:27:15;-16224.22;;;10.75;100.00
65157;BME280;52745;49.794;18.258;2023-05-20T05:29:42;-16225.44;;;10.80;100.00
65157;BME280;52745;49.794;18.258;2023-05-20T05:32:09;-16226.53;;;10.84;100.00
65157;BME280;52745;49.794;18.258;2023-05-20T05:34:35;-16224.75;;;10.77;100.00
65157;BME280;52745;49.794;18.258;2023-05-20T05:37:03;-16225.97;;;10.82;100.00
65157;BME280;52745;49.794;18.258;2023-05-20T05:39:30;-16226.25;;;10.83;100.00
65157;BME280;52745;49.794;18.258;2023-05-20T05:41:57;-16224.22;;;10.75;100.00
65157;BME280;52745;49.794;18.258;2023-05-20T05:44:24;-16225.03;;;10.78;100.00
65157;BME280;52745;49.794;18.258;2023-05-20T05:46:51;-16227.47;;;10.87;100.00
65157;BME280;52745;49.794;18.258;2023-05-20T05:49:18;-16223.38;;;10.72;100.00
65157;BME280;52745;49.794;18.258;2023-05-20T05:51:44;-16226.66;;;10.84;100.00
65157;BME280;52745;49.794;18.258;2023-05-20T05:54:11;-16228.03;;;10.89;100.00
65157;BME280;52745;49.794;18.258;2023-05-20T05:56:38;-16229.78;;;10.96;100.00
65157;BME280;52745;49.794;18.258;2023-05-20T05:59:05;-16229.53;;;10.95;100.00
65157;BME280;52745;49.794;18.258;2023-05-20T06:01:32;-16230.75;;;11.00;100.00
65157;BME280;52745;49.794;18.258;2023-05-20T06:03:59;-16229.53;;;10.95;100.00
65157;BME280;52745;49.794;18.258;2023-05-20T06:06:26;-16229.94;;;10.96;100.00
65157;BME280;52745;49.794;18.258;2023-05-20T06:08:53;-16227.06;;;10.86;100.00
65157;BME280;52745;49.794;18.258;2023-05-20T06:11:21;-16227.88;;;10.89;100.00
65157;BME280;52745;49.794;18.258;2023-05-20T06:13:49;-16230.06;;;10.97;100.00
65157;BME280;52745;49.794;18.258;2023-05-20T06:16:16;-16226.66;;;10.84;100.00
65157;BME280;52745;49.794;18.258;2023-05-20T06:18:46;-16224.22;;;10.75;100.00
65157;BME280;52745;49.794;18.258;2023-05-20T06:21:16;-16226.25;;;10.83;100.00
65157;BME280;52745;49.794;18.258;2023-05-20T06:23:42;-16228.03;;;10.89;100.00
65157;BME280;52745;49.794;18.258;2023-05-20T06:26:11;-16230.63;;;10.99;100.00
65157;BME280;52745;49.794;18.258;2023-05-20T06:28:38;-16231.03;;;11.01;100.00
65157;BME280;52745;49.794;18.258;2023-05-20T06:31:05;-16234.69;;;11.14;100.00
65157;BME280;52745;49.794;18.258;2023-05-20T06:33:34;-16237.69;;;11.26;100.00
65157;BME280;52745;49.794;18.258;2023-05-20T06:36:05;-16230.63;;;10.99;100.00
65157;BME280;52745;49.794;18.258;2023-05-20T06:38:32;-16224.06;;;10.74;100.00
65157;BME280;52745;49.794;18.258;2023-05-20T06:40:59;-16218.06;;;10.52;100.00
65157;BME280;52745;49.794;18.258;2023-05-20T06:43:26;-16217.13;;;10.48;100.00
65157;BME280;52745;49.794;18.258;2023-05-20T06:46:05;-16218.63;;;10.54;100.00
65157;BME280;52745;49.794;18.258;2023-05-20T06:48:49;-16216.97;;;10.48;100.00
65157;BME280;52745;49.794;18.258;2023-05-20T06:51:17;-16221.47;;;10.65;100.00
65157;BME280;52745;49.794;18.258;2023-05-20T06:53:46;-16225.56;;;10.80;100.00
65157;BME280;52745;49.794;18.258;2023-05-20T06:56:14;-16226.94;;;10.85;100.00
65157;BME280;52745;49.794;18.258;2023-05-20T06:58:41;-16229.66;;;10.95;100.00
65157;BME280;52745;49.794;18.258;2023-05-20T07:01:08;-16232.25;;;11.05;100.00
65157;BME280;52745;49.794;18.258;2023-05-20T07:03:34;-16233.75;;;11.11;100.00
65157;BME280;52745;49.794;18.258;2023-05-20T07:06:01;-16237.44;;;11.25;100.00
65157;BME280;52745;49.794;18.258;2023-05-20T07:08:28;-16241.66;;;11.41;100.00
65157;BME280;52745;49.794;18.258;2023-05-20T07:10:55;-16240.69;;;11.37;100.00
65157;BME280;52745;49.794;18.258;2023-05-20T07:13:23;-16241.50;;;11.40;100.00
65157;BME280;52745;49.794;18.258;2023-05-20T07:15:52;-16243.56;;;11.48;100.00
65157;BME280;52745;49.794;18.258;2023-05-20T07:18:18;-16247.38;;;11.62;100.00
65157;BME280;52745;49.794;18.258;2023-05-20T07:20:53;-16245.06;;;11.53;100.00
65157;BME280;52745;49.794;18.258;2023-05-20T07:23:42;-16244.66;;;11.52;100.00
65157;BME280;52745;49.794;18.258;2023-05-20T07:26:09;-16248.31;;;11.66;100.00
65157;BME280;52745;49.794;18.258;2023-05-20T07:28:37;-16252.00;;;11.79;100.00
65157;BME280;52745;49.794;18.258;2023-05-20T07:31:05;-16254.88;;;11.90;100.00
65157;BME280;52745;49.794;18.258;2023-05-20T07:33:34;-16256.09;;;11.95;100.00
65157;BME280;52745;49.794;18.258;2023-05-20T07:36:02;-16260.19;;;12.10;100.00
65157;BME280;52745;49.794;18.258;2023-05-20T07:38:29;-16259.91;;;12.09;100.00
65157;BME280;52745;49.794;18.258;2023-05-20T07:40:59;-16252.97;;;11.83;100.00
65157;BME280;52745;49.794;18.258;2023-05-20T07:43:30;-16254.06;;;11.87;100.00
65157;BME280;52745;49.794;18.258;2023-05-20T07:45:57;-16251.47;;;11.77;100.00
65157;BME280;52745;49.794;18.258;2023-05-20T07:48:24;-16244.09;;;11.50;100.00
65157;BME280;52745;49.794;18.258;2023-05-20T07:50:51;-16249.69;;;11.71;100.00
65157;BME280;52745;49.794;18.258;2023-05-20T07:53:18;-16254.19;;;11.88;100.00
65157;BME280;52745;49.794;18.258;2023-05-20T07:55:45;-16256.09;;;11.95;100.00
65157;BME280;52745;49.794;18.258;2023-05-20T07:58:12;-16258.28;;;12.03;100.00
65157;BME280;52745;49.794;18.258;2023-05-20T08:00:39;-16259.22;;;12.07;100.00
65157;BME280;52745;49.794;18.258;2023-05-20T08:03:07;-16266.59;;;12.34;100.00
65157;BME280;52745;49.794;18.258;2023-05-20T08:05:57;-16274.34;;;12.63;100.00
65157;BME280;52745;49.794;18.258;2023-05-20T08:08:24;-16277.47;;;12.75;100.00
65157;BME280;52745;49.794;18.258;2023-05-20T08:10:58;-16282.50;;;12.94;99.88
65157;BME280;52745;49.794;18.258;2023-05-20T08:13:27;-16284.56;;;13.02;98.56
65157;BME280;52745;49.794;18.258;2023-05-20T08:15:57;-16287.97;;;13.15;97.95
65157;BME280;52745;49.794;18.258;2023-05-20T08:18:24;-16290.69;;;13.25;96.35
65157;BME280;52745;49.794;18.258;2023-05-20T08:20:54;-16294.50;;;13.39;95.98
65157;BME280;52745;49.794;18.258;2023-05-20T08:23:21;-16291.22;;;13.27;96.55
65157;BME280;52745;49.794;18.258;2023-05-20T08:25:49;-16295.03;;;13.41;96.10
65157;BME280;52745;49.794;18.258;2023-05-20T08:28:16;-16297.09;;;13.49;95.51
65157;BME280;52745;49.794;18.258;2023-05-20T08:30:44;-16300.50;;;13.62;95.57
65157;BME280;52745;49.794;18.258;2023-05-20T08:33:14;-16303.22;;;13.72;94.89
65157;BME280;52745;49.794;18.258;2023-05-20T08:35:41;-16307.56;;;13.89;93.51
65157;BME280;52745;49.794;18.258;2023-05-20T08:38:07;-16304.84;;;13.78;93.83
65157;BME280;52745;49.794;18.258;2023-05-20T08:40:34;-16304.28;;;13.76;95.12
65157;BME280;52745;49.794;18.258;2023-05-20T08:43:01;-16307.28;;;13.87;94.15
65157;BME280;52745;49.794;18.258;2023-05-20T08:45:31;-16310.97;;;14.01;93.55
65157;BME280;52745;49.794;18.258;2023-05-20T08:48:01;-16316.53;;;14.22;92.25
65157;BME280;52745;49.794;18.258;2023-05-20T08:50:30;-16319.25;;;14.33;91.59
65157;BME280;52745;49.794;18.258;2023-05-20T08:52:57;-16318.72;;;14.31;91.08
65157;BME280;52745;49.794;18.258;2023-05-20T08:55:41;-16319.53;;;14.34;90.53
65157;BME280;52745;49.794;18.258;2023-05-20T08:58:11;-16322.53;;;14.45;90.50
65157;BME280;52745;49.794;18.258;2023-05-20T09:00:38;-16324.69;;;14.53;89.36
65157;BME280;52745;49.794;18.258;2023-05-20T09:03:04;-16327.44;;;14.63;88.57
65157;BME280;52745;49.794;18.258;2023-05-20T09:05:33;-16331.25;;;14.78;87.97
65157;BME280;52745;49.794;18.258;2023-05-20T09:08:09;-16329.47;;;14.71;90.12
65157;BME280;52745;49.794;18.258;2023-05-20T09:10:40;-16331.38;;;14.78;90.63
65157;BME280;52745;49.794;18.258;2023-05-20T09:13:08;-16337.22;;;15.00;90.27
65157;BME280;52745;49.794;18.258;2023-05-20T09:15:35;-16341.16;;;15.15;90.90
65157;BME280;52745;49.794;18.258;2023-05-20T09:18:04;-16344.28;;;15.27;89.02
65157;BME280;52745;49.794;18.258;2023-05-20T09:20:33;-16339.13;;;15.07;88.39
65157;BME280;52745;49.794;18.258;2023-05-20T09:23:01;-16341.44;;;15.16;89.68
65157;BME280;52745;49.794;18.258;2023-05-20T09:25:29;-16343.47;;;15.24;87.79
65157;BME280;52745;49.794;18.258;2023-05-20T09:27:55;-16351.09;;;15.52;85.75
65157;BME280;52745;49.794;18.258;2023-05-20T09:30:23;-16354.34;;;15.65;85.79
65157;BME280;52745;49.794;18.258;2023-05-20T09:32:57;-16355.28;;;15.68;86.62
65157;BME280;52745;49.794;18.258;2023-05-20T09:35:26;-16347.41;;;15.39;87.18
65157;BME280;52745;49.794;18.258;2023-05-20T09:37:56;-16339.94;;;15.10;87.57
65157;BME280;52745;49.794;18.258;2023-05-20T09:40:25;-16332.59;;;14.83;88.96
65157;BME280;52745;49.794;18.258;2023-05-20T09:42:55;-16340.22;;;15.11;89.64
65157;BME280;52745;49.794;18.258;2023-05-20T09:45:23;-16350.13;;;15.49;88.46
65157;BME280;52745;49.794;18.258;2023-05-20T09:47:50;-16355.16;;;15.68;85.65
65157;BME280;52745;49.794;18.258;2023-05-20T09:50:21;-16360.75;;;15.89;85.69
65157;BME280;52745;49.794;18.258;2023-05-20T09:52:52;-16362.09;;;15.94;86.91
65157;BME280;52745;49.794;18.258;2023-05-20T09:55:21;-16365.50;;;16.07;85.98
65157;BME280;52745;49.794;18.258;2023-05-20T09:57:48;-16368.22;;;16.17;84.66
65157;BME280;52745;49.794;18.258;2023-05-20T10:00:15;-16371.19;;;16.28;84.72
65157;BME280;52745;49.794;18.258;2023-05-20T10:02:45;-16366.56;;;16.11;85.14
65157;BME280;52745;49.794;18.258;2023-05-20T10:05:30;-16369.03;;;16.20;85.87
65157;BME280;52745;49.794;18.258;2023-05-20T10:10:52;-16375.13;;;16.43;83.04
65157;BME280;52745;49.794;18.258;2023-05-20T10:16:28;-16391.16;;;17.04;80.33
65157;BME280;52745;49.794;18.258;2023-05-20T10:19:39;-16394.84;;;17.17;79.43
65157;BME280;52745;49.794;18.258;2023-05-20T10:22:09;-16399.19;;;17.34;81.60
65157;BME280;52745;49.794;18.258;2023-05-20T10:24:38;-16404.34;;;17.53;79.35
65157;BME280;52745;49.794;18.258;2023-05-20T10:27:10;-16410.31;;;17.76;78.74
65157;BME280;52745;49.794;18.258;2023-05-20T10:29:44;-16414.94;;;17.93;77.72
65157;BME280;52745;49.794;18.258;2023-05-20T10:32:21;-16417.09;;;18.02;78.48
65157;BME280;52745;49.794;18.258;2023-05-20T10:34:49;-16402.72;;;17.47;77.72
65157;BME280;52745;49.794;18.258;2023-05-20T10:37:30;-16398.38;;;17.31;78.79
65157;BME280;52745;49.794;18.258;2023-05-20T10:40:12;-16414.78;;;17.93;80.66
65157;BME280;52745;49.794;18.258;2023-05-20T10:42:40;-16419.53;;;18.11;76.82
65157;BME280;52745;49.794;18.258;2023-05-20T10:45:08;-16411.13;;;17.79;75.80
65157;BME280;52745;49.794;18.258;2023-05-20T10:47:35;-16408.94;;;17.71;80.47
65157;BME280;52745;49.794;18.258;2023-05-20T10:50:02;-16417.22;;;18.02;75.80
65157;BME280;52745;49.794;18.258;2023-05-20T10:52:35;-16433.50;;;18.64;74.50
65157;BME280;52745;49.794;18.258;2023-05-20T10:55:03;-16449.91;;;19.26;73.14
65157;BME280;52745;49.794;18.258;2023-05-20T10:57:30;-16452.63;;;19.36;72.86
65157;BME280;52745;49.794;18.258;2023-05-20T11:00:00;-16472.97;;;20.13;67.97
65157;BME280;52745;49.794;18.258;2023-05-20T11:02:27;-16480.69;;;20.42;66.87
65157;BME280;52745;49.794;18.258;2023-05-20T11:04:57;-16458.88;;;19.59;71.59
65157;BME280;52745;49.794;18.258;2023-05-20T11:07:28;-16436.09;;;18.73;73.62
65157;BME280;52745;49.794;18.258;2023-05-20T11:09:56;-16430.66;;;18.53;74.50
65157;BME280;52745;49.794;18.258;2023-05-20T11:12:24;-16440.28;;;18.89;77.06
65157;BME280;52745;49.794;18.258;2023-05-20T11:14:51;-16449.78;;;19.25;73.49
65157;BME280;52745;49.794;18.258;2023-05-20T11:17:18;-16490.84;;;20.80;66.95
65157;BME280;52745;49.794;18.258;2023-05-20T11:19:46;-16499.25;;;21.12;66.23
65157;BME280;52745;49.794;18.258;2023-05-20T11:22:13;-16523.59;;;22.04;65.42
65157;BME280;52745;49.794;18.258;2023-05-20T11:24:39;-16554.03;;;23.20;59.08
65157;BME280;52745;49.794;18.258;2023-05-20T11:27:06;-16575.25;;;24.00;56.88
65157;BME280;52745;49.794;18.258;2023-05-20T11:29:33;-16578.63;;;24.13;56.09
65157;BME280;52745;49.794;18.258;2023-05-20T11:32:00;-16562.00;;;23.50;55.07
65157;BME280;52745;49.794;18.258;2023-05-20T11:34:34;-16559.59;;;23.41;59.22
65157;BME280;52745;49.794;18.258;2023-05-20T11:37:02;-16556.34;;;23.28;58.52
65157;BME280;52745;49.794;18.258;2023-05-20T11:39:32;-16557.81;;;23.34;58.22
65157;BME280;52745;49.794;18.258;2023-05-20T11:41:59;-16561.22;;;23.47;57.11
65157;BME280;52745;49.794;18.258;2023-05-20T11:44:26;-16559.84;;;23.42;58.40
65157;BME280;52745;49.794;18.258;2023-05-20T11:46:59;-16547.69;;;22.96;59.55
65157;BME280;52745;49.794;18.258;2023-05-20T11:49:25;-16535.53;;;22.49;61.06
65157;BME280;52745;49.794;18.258;2023-05-20T11:51:52;-16536.19;;;22.52;62.98
65157;BME280;52745;49.794;18.258;2023-05-20T11:54:21;-16540.38;;;22.68;59.28
65157;BME280;52745;49.794;18.258;2023-05-20T11:56:48;-16539.72;;;22.65;63.36
65157;BME280;52745;49.794;18.258;2023-05-20T11:59:15;-16543.63;;;22.80;60.71
65157;BME280;52745;49.794;18.258;2023-05-20T12:01:42;-16563.63;;;23.56;61.55
65157;BME280;52745;49.794;18.258;2023-05-20T12:04:09;-16553.38;;;23.17;58.31
65157;BME280;52745;49.794;18.258;2023-05-20T12:06:36;-16560.13;;;23.43;57.96
65157;BME280;52745;49.794;18.258;2023-05-20T12:09:03;-16547.13;;;22.93;58.86
65157;BME280;52745;49.794;18.258;2023-05-20T12:11:35;-16540.09;;;22.67;60.60
65157;BME280;52745;49.794;18.258;2023-05-20T12:14:02;-16528.06;;;22.21;62.47
65157;BME280;52745;49.794;18.258;2023-05-20T12:16:30;-16540.09;;;22.67;61.34
65157;BME280;52745;49.794;18.258;2023-05-20T12:18:58;-16521.31;;;21.96;63.77
65157;BME280;52745;49.794;18.258;2023-05-20T12:21:25;-16514.13;;;21.68;64.03
65157;BME280;52745;49.794;18.258;2023-05-20T12:23:52;-16514.81;;;21.71;65.44
65157;BME280;52745;49.794;18.258;2023-05-20T12:26:23;-16523.59;;;22.04;63.79
65157;BME280;52745;49.794;18.258;2023-05-20T12:28:51;-16523.34;;;22.03;62.95
65157;BME280;52745;49.794;18.258;2023-05-20T12:31:18;-16533.75;;;22.43;63.29
65157;BME280;52745;49.794;18.258;2023-05-20T12:33:44;-16528.63;;;22.23;64.05
65157;BME280;52745;49.794;18.258;2023-05-20T12:36:12;-16522.13;;;21.99;64.54
65157;BME280;52745;49.794;18.258;2023-05-20T12:38:39;-16537.28;;;22.56;63.29
65157;BME280;52745;49.794;18.258;2023-05-20T12:41:05;-16530.38;;;22.30;63.40
65157;BME280;52745;49.794;18.258;2023-05-20T12:43:32;-16532.94;;;22.40;64.23
65157;BME280;52745;49.794;18.258;2023-05-20T12:45:59;-16521.84;;;21.98;65.36
65157;BME280;52745;49.794;18.258;2023-05-20T12:48:25;-16522.78;;;22.01;66.72